createdAt,value
2023-02-23T00:01:02.677Z,11.10
2023-02-23T00:03:05.737Z,11.11
2023-02-23T00:05:09.338Z,11.26
2023-02-23T00:07:13.602Z,11.24
2023-02-23T00:09:23.397Z,11.26
2023-02-23T00:11:28.026Z,11.24
2023-02-23T00:13:31.867Z,11.37
2023-02-23T00:15:34.743Z,11.37
2023-02-23T00:17:41.168Z,11.51
2023-02-23T00:19:44.506Z,11.58
2023-02-23T00:21:47.404Z,11.66
2023-02-23T00:23:53.116Z,11.69
2023-02-23T00:25:59.618Z,11.72
2023-02-23T00:28:02.601Z,11.76
2023-02-23T00:30:07.261Z,11.59
2023-02-23T00:32:10.294Z,11.59
2023-02-23T00:34:15.094Z,11.72
2023-02-23T00:36:18.192Z,11.58
2023-02-23T00:38:21.145Z,11.65
2023-02-23T00:40:25.664Z,11.63
2023-02-23T00:42:32.326Z,11.56
2023-02-23T00:44:40.595Z,11.57
2023-02-23T00:46:44.211Z,11.73
2023-02-23T00:48:47.471Z,11.62
2023-02-23T00:50:59.315Z,11.70
2023-02-23T00:53:02.205Z,11.44
2023-02-23T00:55:06.539Z,11.38
2023-02-23T00:57:11.090Z,11.42
2023-02-23T00:59:14.899Z,11.61
2023-02-23T01:01:18.613Z,11.71
2023-02-23T01:03:21.729Z,11.64
2023-02-23T01:05:24.950Z,11.49
2023-02-23T01:07:30.115Z,11.62
2023-02-23T01:09:34.122Z,11.53
2023-02-23T01:11:37.215Z,11.44
2023-02-23T01:13:43.047Z,11.45
2023-02-23T01:15:48.260Z,11.60
2023-02-23T01:17:51.376Z,11.58
2023-02-23T01:19:55.222Z,11.66
2023-02-23T01:21:58.199Z,11.65
2023-02-23T01:24:02.234Z,11.67
2023-02-23T01:26:05.427Z,11.71
2023-02-23T01:28:09.069Z,11.71
2023-02-23T01:30:16.655Z,11.32
2023-02-23T01:32:20.306Z,11.49
2023-02-23T01:34:23.219Z,11.59
2023-02-23T01:36:28.972Z,11.66
2023-02-23T01:38:31.980Z,11.68
2023-02-23T01:40:37.118Z,11.72
2023-02-23T01:42:42.174Z,11.80
2023-02-23T01:45:21.031Z,11.85
2023-02-23T01:47:26.826Z,11.89
2023-02-23T01:49:31.128Z,11.91
2023-02-23T01:51:37.526Z,11.93
2023-02-23T01:53:44.347Z,11.92
2023-02-23T01:55:50.906Z,11.80
2023-02-23T01:57:56.976Z,11.77
2023-02-23T02:00:00.213Z,11.78
2023-02-23T02:02:05.485Z,11.77
2023-02-23T02:04:09.353Z,11.72
2023-02-23T02:06:15.246Z,11.71
2023-02-23T02:08:19.183Z,11.64
2023-02-23T02:10:39.632Z,11.62
2023-02-23T02:12:44.870Z,11.62
2023-02-23T02:14:48.045Z,11.66
2023-02-23T02:17:06.875Z,11.68
2023-02-23T02:19:33.661Z,11.67
2023-02-23T02:22:27.057Z,11.66
2023-02-23T02:25:04.485Z,11.66
2023-02-23T02:27:26.852Z,11.73
2023-02-23T02:29:52.341Z,11.67
2023-02-23T02:32:19.816Z,11.60
2023-02-23T02:34:49.815Z,11.62
2023-02-23T02:37:19.086Z,11.61
2023-02-23T02:39:34.990Z,11.52
2023-02-23T02:41:51.415Z,11.58
2023-02-23T02:43:59.426Z,11.58
2023-02-23T02:46:06.235Z,11.54
2023-02-23T02:48:18.392Z,11.56
2023-02-23T02:50:25.571Z,11.60
2023-02-23T02:52:32.418Z,11.59
2023-02-23T02:54:39.630Z,11.60
2023-02-23T02:56:44.561Z,11.63
2023-02-23T02:58:50.956Z,11.64
2023-02-23T03:01:12.098Z,11.68
2023-02-23T03:03:47.388Z,11.70
2023-02-23T03:06:09.471Z,11.69
2023-02-23T03:08:37.753Z,11.69
2023-02-23T03:11:04.971Z,11.67
2023-02-23T03:13:34.347Z,11.71
2023-02-23T03:16:00.149Z,11.73
2023-02-23T03:18:31.882Z,11.76
2023-02-23T03:21:00.973Z,11.78
2023-02-23T03:23:28.388Z,11.77
2023-02-23T03:25:54.099Z,11.79
2023-02-23T03:28:18.319Z,11.82
2023-02-23T03:30:42.236Z,11.82
2023-02-23T03:33:07.879Z,11.83
2023-02-23T03:35:33.164Z,11.82
2023-02-23T03:37:58.106Z,11.82
2023-02-23T03:40:24.609Z,11.83
2023-02-23T03:42:50.598Z,11.84
2023-02-23T03:45:11.727Z,11.84
2023-02-23T03:47:34.282Z,11.88
2023-02-23T03:49:57.710Z,11.81
2023-02-23T03:52:22.882Z,11.89
2023-02-23T03:54:46.550Z,11.88
2023-02-23T03:57:09.659Z,11.88
2023-02-23T03:59:33.062Z,11.89
2023-02-23T04:01:54.367Z,11.83
2023-02-23T04:04:16.337Z,11.75
2023-02-23T04:06:37.810Z,11.51
2023-02-23T04:08:58.809Z,11.59
2023-02-23T04:11:24.201Z,11.75
2023-02-23T04:13:27.404Z,11.77
2023-02-23T04:15:33.170Z,11.78
2023-02-23T04:17:36.559Z,11.76
2023-02-23T04:19:39.579Z,11.69
2023-02-23T04:21:42.582Z,11.63
2023-02-23T04:23:45.682Z,11.55
2023-02-23T04:25:49.221Z,11.49
2023-02-23T04:27:53.347Z,11.36
2023-02-23T04:29:57.673Z,11.51
2023-02-23T04:32:02.041Z,11.47
2023-02-23T04:34:05.632Z,11.38
2023-02-23T04:36:09.049Z,11.48
2023-02-23T04:38:12.073Z,11.45
2023-02-23T04:40:15.425Z,11.40
2023-02-23T04:42:19.363Z,11.51
2023-02-23T04:44:22.577Z,11.49
2023-02-23T04:46:25.910Z,11.37
2023-02-23T04:48:30.214Z,11.28
2023-02-23T04:50:33.292Z,11.43
2023-02-23T04:52:37.618Z,11.48
2023-02-23T04:54:41.816Z,11.35
2023-02-23T04:56:44.992Z,11.42
2023-02-23T04:58:47.970Z,11.21
2023-02-23T05:00:51.477Z,11.20
2023-02-23T05:02:54.860Z,11.38
2023-02-23T05:05:00.754Z,11.44
2023-02-23T05:07:04.644Z,11.30
2023-02-23T05:09:07.794Z,11.40
2023-02-23T05:11:11.218Z,11.46
2023-02-23T05:13:14.125Z,11.46
2023-02-23T05:15:17.530Z,11.52
2023-02-23T05:17:20.506Z,11.55
2023-02-23T05:19:24.038Z,11.55
2023-02-23T05:21:28.587Z,11.56
2023-02-23T05:23:32.069Z,11.48
2023-02-23T05:25:35.752Z,11.52
2023-02-23T05:27:38.747Z,11.52
2023-02-23T05:29:41.722Z,11.54
2023-02-23T05:31:44.870Z,11.52
2023-02-23T05:33:48.000Z,11.53
2023-02-23T05:35:51.222Z,11.51
2023-02-23T05:37:55.562Z,11.51
2023-02-23T05:39:58.564Z,11.52
2023-02-23T05:42:01.459Z,11.52
2023-02-23T05:44:04.925Z,11.49
2023-02-23T05:46:08.542Z,11.46
2023-02-23T05:48:14.058Z,11.30
2023-02-23T05:50:18.558Z,11.12
2023-02-23T05:52:21.593Z,11.09
2023-02-23T05:54:25.951Z,11.27
2023-02-23T05:56:29.140Z,11.18
2023-02-23T05:58:32.562Z,11.27
2023-02-23T06:00:35.516Z,11.31
2023-02-23T06:02:38.581Z,11.35
2023-02-23T06:04:41.983Z,11.38
2023-02-23T06:06:45.450Z,11.34
2023-02-23T06:08:48.461Z,11.16
2023-02-23T06:10:52.945Z,11.24
2023-02-23T06:12:56.237Z,11.15
2023-02-23T06:14:59.214Z,11.08
2023-02-23T06:17:02.269Z,10.92
2023-02-23T06:19:05.278Z,11.13
2023-02-23T06:21:08.660Z,11.18
2023-02-23T06:23:12.138Z,11.22
2023-02-23T06:25:15.214Z,11.24
2023-02-23T06:27:19.572Z,11.18
2023-02-23T06:29:23.815Z,11.12
2023-02-23T06:31:26.824Z,11.19
2023-02-23T06:33:29.952Z,11.22
2023-02-23T06:35:33.308Z,11.22
2023-02-23T06:37:36.745Z,11.02
2023-02-23T06:39:40.215Z,11.17
2023-02-23T06:41:43.680Z,11.22
2023-02-23T06:43:48.284Z,11.20
2023-02-23T06:45:52.478Z,11.18
2023-02-23T06:47:56.986Z,11.19
2023-02-23T06:50:02.029Z,11.15
2023-02-23T06:52:05.138Z,11.23
2023-02-23T06:54:08.284Z,11.26
2023-02-23T06:56:12.779Z,11.24
2023-02-23T06:58:15.901Z,11.20
2023-02-23T07:00:21.504Z,11.19
2023-02-23T07:02:24.837Z,11.24
2023-02-23T07:04:27.809Z,11.15
2023-02-23T07:06:31.467Z,11.20
2023-02-23T07:08:34.958Z,11.27
2023-02-23T07:10:37.921Z,11.27
2023-02-23T07:12:41.055Z,11.23
2023-02-23T07:14:44.250Z,11.27
2023-02-23T07:16:48.952Z,11.31
2023-02-23T07:18:52.390Z,11.29
2023-02-23T07:20:55.456Z,11.33
2023-02-23T07:22:58.436Z,11.30
2023-02-23T07:25:01.758Z,11.32
2023-02-23T07:27:04.932Z,11.40
2023-02-23T07:29:08.028Z,11.24
2023-02-23T07:31:11.083Z,11.36
2023-02-23T07:33:15.516Z,11.40
2023-02-23T07:35:18.671Z,11.39
2023-02-23T07:37:21.706Z,11.23
2023-02-23T07:39:25.634Z,11.34
2023-02-23T07:41:28.689Z,11.37
2023-02-23T07:43:32.020Z,11.39
2023-02-23T07:45:35.350Z,11.42
2023-02-23T07:47:39.530Z,11.38
2023-02-23T07:49:43.868Z,11.35
2023-02-23T07:51:47.379Z,11.45
2023-02-23T07:53:50.798Z,11.46
2023-02-23T07:56:18.499Z,11.48
2023-02-23T07:58:21.461Z,11.49
2023-02-23T08:00:27.519Z,11.51
2023-02-23T08:02:32.231Z,11.51
2023-02-23T08:04:35.327Z,11.24
2023-02-23T08:06:39.791Z,11.31
2023-02-23T08:08:43.086Z,11.35
2023-02-23T08:10:46.149Z,11.38
2023-02-23T08:12:49.506Z,11.43
2023-02-23T08:14:52.819Z,11.29
2023-02-23T08:16:55.772Z,11.45
2023-02-23T08:18:59.906Z,11.50
2023-02-23T08:21:05.351Z,11.54
2023-02-23T08:23:11.593Z,11.58
2023-02-23T08:25:14.620Z,11.60
2023-02-23T08:27:17.611Z,11.30
2023-02-23T08:29:21.462Z,11.44
2023-02-23T08:31:25.401Z,11.52
2023-02-23T08:33:28.567Z,11.60
2023-02-23T08:35:32.146Z,11.69
2023-02-23T08:37:35.469Z,11.67
2023-02-23T08:39:40.488Z,11.62
2023-02-23T08:41:44.494Z,11.42
2023-02-23T08:43:47.572Z,11.65
2023-02-23T08:45:50.467Z,11.56
2023-02-23T08:47:55.745Z,11.64
2023-02-23T08:49:58.858Z,11.70
2023-02-23T08:52:01.855Z,11.51
2023-02-23T08:54:04.892Z,11.51
2023-02-23T08:56:10.037Z,11.70
2023-02-23T08:58:15.314Z,11.69
2023-02-23T09:00:19.249Z,11.73
2023-02-23T09:02:24.043Z,11.81
2023-02-23T09:04:32.665Z,11.76
2023-02-23T09:06:36.262Z,11.81
2023-02-23T09:08:39.441Z,11.84
2023-02-23T09:10:43.861Z,11.85
2023-02-23T09:12:48.465Z,11.65
2023-02-23T09:14:53.916Z,11.79
2023-02-23T09:16:56.877Z,11.73
2023-02-23T09:19:01.436Z,11.78
2023-02-23T09:21:08.703Z,11.78
2023-02-23T09:23:11.992Z,11.82
2023-02-23T09:25:18.267Z,11.72
2023-02-23T09:27:21.295Z,11.76
2023-02-23T09:29:25.635Z,11.75
2023-02-23T09:31:29.227Z,11.72
2023-02-23T09:33:32.234Z,11.77
2023-02-23T09:35:36.319Z,11.77
2023-02-23T09:37:39.390Z,11.72
2023-02-23T09:39:43.600Z,11.77
2023-02-23T09:42:00.323Z,11.71
2023-02-23T09:44:05.054Z,11.78
2023-02-23T09:46:19.926Z,11.80
2023-02-23T09:48:24.909Z,11.87
2023-02-23T09:50:29.867Z,11.93
2023-02-23T09:52:40.297Z,12.01
2023-02-23T09:54:44.297Z,12.06
2023-02-23T09:56:48.752Z,12.09
2023-02-23T09:58:51.787Z,12.06
2023-02-23T10:01:18.110Z,12.04
2023-02-23T10:03:26.026Z,12.05
2023-02-23T10:05:31.752Z,12.08
2023-02-23T10:07:44.765Z,12.16
2023-02-23T10:10:01.890Z,12.16
2023-02-23T10:12:08.852Z,12.19
2023-02-23T10:14:25.483Z,12.19
2023-02-23T10:16:39.501Z,12.15
2023-02-23T10:18:50.136Z,12.21
2023-02-23T10:21:00.190Z,12.20
2023-02-23T10:23:06.924Z,12.19
2023-02-23T10:25:13.892Z,12.18
2023-02-23T10:27:18.653Z,12.16
2023-02-23T10:29:24.819Z,12.09
2023-02-23T10:31:32.442Z,12.06
2023-02-23T10:33:38.449Z,12.12
2023-02-23T10:35:43.086Z,12.11
2023-02-23T10:37:46.767Z,12.05
2023-02-23T10:39:51.533Z,12.05
2023-02-23T10:41:54.870Z,12.00
2023-02-23T10:44:02.592Z,12.07
2023-02-23T10:46:21.158Z,12.05
2023-02-23T10:48:26.359Z,12.00
2023-02-23T10:50:30.679Z,11.99
2023-02-23T10:52:41.710Z,11.97
2023-02-23T10:54:47.961Z,12.00
2023-02-23T10:56:51.440Z,12.00
2023-02-23T10:58:55.756Z,11.89
2023-02-23T11:01:10.676Z,11.90
2023-02-23T11:03:29.384Z,11.90
2023-02-23T11:05:38.725Z,11.90
2023-02-23T11:07:45.174Z,11.85
2023-02-23T11:09:49.534Z,11.80
2023-02-23T11:12:00.124Z,11.90
2023-02-23T11:14:18.046Z,11.78
2023-02-23T11:16:23.157Z,11.76
2023-02-23T11:18:26.483Z,11.75
2023-02-23T11:20:33.531Z,11.85
2023-02-23T11:22:38.150Z,11.86
2023-02-23T11:24:42.765Z,11.46
2023-02-23T11:26:47.362Z,11.49
2023-02-23T11:28:52.888Z,11.62
2023-02-23T11:30:55.979Z,11.68
2023-02-23T11:33:02.569Z,11.63
2023-02-23T11:35:29.077Z,11.66
2023-02-23T11:37:33.464Z,11.68
2023-02-23T11:39:38.670Z,11.77
2023-02-23T11:41:43.466Z,11.78
2023-02-23T11:43:49.356Z,11.72
2023-02-23T11:45:53.604Z,11.63
2023-02-23T11:47:59.361Z,11.70
2023-02-23T11:50:04.951Z,11.76
2023-02-23T11:52:14.052Z,11.84
2023-02-23T11:54:22.787Z,11.85
2023-02-23T11:56:26.928Z,11.72
2023-02-23T11:58:37.109Z,11.80
2023-02-23T12:00:40.124Z,11.85
2023-02-23T12:02:51.638Z,11.76
2023-02-23T12:05:02.675Z,11.61
2023-02-23T12:07:25.373Z,11.64
2023-02-23T12:09:32.724Z,11.55
2023-02-23T12:11:39.517Z,11.50
2023-02-23T12:13:47.555Z,11.56
2023-02-23T12:15:54.824Z,11.50
2023-02-23T12:18:00.294Z,11.49
2023-02-23T12:20:06.886Z,11.44
2023-02-23T12:22:13.873Z,11.35
2023-02-23T12:24:20.718Z,11.06
2023-02-23T12:26:26.618Z,11.21
2023-02-23T12:28:34.934Z,11.25
2023-02-23T12:30:45.330Z,11.33
2023-02-23T12:32:53.818Z,11.26
2023-02-23T12:35:00.842Z,11.25
2023-02-23T12:37:15.335Z,11.40
2023-02-23T12:39:24.476Z,11.43
2023-02-23T12:41:35.380Z,11.38
2023-02-23T12:43:51.524Z,11.46
2023-02-23T12:45:59.330Z,11.36
2023-02-23T12:48:07.887Z,11.41
2023-02-23T12:50:13.360Z,11.33
2023-02-23T12:52:20.235Z,11.34
2023-02-23T12:54:23.165Z,11.41
2023-02-23T12:56:35.607Z,11.42
2023-02-23T12:58:42.411Z,11.40
2023-02-23T13:00:52.561Z,11.48
2023-02-23T13:03:27.857Z,11.50
2023-02-23T13:05:34.051Z,11.35
2023-02-23T13:07:42.810Z,11.16
2023-02-23T13:09:53.104Z,11.27
2023-02-23T13:12:15.134Z,11.29
2023-02-23T13:14:22.747Z,11.11
2023-02-23T13:16:30.866Z,11.16
2023-02-23T13:18:38.922Z,11.11
2023-02-23T13:20:45.403Z,11.16
2023-02-23T13:22:51.644Z,11.23
2023-02-23T13:24:58.171Z,11.22
2023-02-23T13:27:04.358Z,11.08
2023-02-23T13:29:12.084Z,11.12
2023-02-23T13:31:24.342Z,11.15
2023-02-23T13:33:41.870Z,11.11
2023-02-23T13:35:48.667Z,10.98
2023-02-23T13:37:56.791Z,11.06
2023-02-23T13:40:06.780Z,11.10
2023-02-23T13:42:20.088Z,11.11
2023-02-23T13:44:28.462Z,10.96
2023-02-23T13:46:41.050Z,10.99
2023-02-23T13:48:57.498Z,11.06
2023-02-23T13:51:06.388Z,11.10
2023-02-23T13:53:29.239Z,11.06
2023-02-23T13:55:50.351Z,11.05
2023-02-23T13:57:53.603Z,11.03
2023-02-23T13:59:56.745Z,10.91
2023-02-23T14:02:01.789Z,10.88
2023-02-23T14:04:07.921Z,11.01
2023-02-23T14:06:16.360Z,11.04
2023-02-23T14:08:24.146Z,11.04
2023-02-23T14:10:29.078Z,11.04
2023-02-23T14:12:35.824Z,11.04
2023-02-23T14:14:44.354Z,11.08
2023-02-23T14:17:11.981Z,11.00
2023-02-23T14:19:39.967Z,11.03
2023-02-23T14:21:49.881Z,10.98
2023-02-23T14:23:54.012Z,11.01
2023-02-23T14:26:16.486Z,11.06
2023-02-23T14:28:30.918Z,10.99
2023-02-23T14:30:49.766Z,10.97
2023-02-23T14:32:53.889Z,10.81
2023-02-23T14:34:57.999Z,10.97
2023-02-23T14:37:06.474Z,10.99
2023-02-23T14:39:12.004Z,10.95
2023-02-23T14:41:14.985Z,10.92
2023-02-23T14:43:43.162Z,10.85
2023-02-23T14:45:47.573Z,10.79
2023-02-23T14:47:52.486Z,10.78
2023-02-23T14:49:57.669Z,10.82
2023-02-23T14:52:08.255Z,10.83
2023-02-23T14:54:23.011Z,10.80
2023-02-23T14:56:35.450Z,10.82
2023-02-23T14:58:41.822Z,10.76
2023-02-23T15:00:45.975Z,10.80
2023-02-23T15:02:57.327Z,10.82
2023-02-23T15:05:00.320Z,10.77
2023-02-23T15:07:03.606Z,10.80
2023-02-23T15:09:08.537Z,10.75
2023-02-23T15:11:13.892Z,10.76
2023-02-23T15:13:28.966Z,10.80
2023-02-23T15:15:32.088Z,10.84
2023-02-23T15:17:35.679Z,10.83
2023-02-23T15:19:39.734Z,10.79
2023-02-23T15:21:42.725Z,10.84
2023-02-23T15:23:46.428Z,10.85
2023-02-23T15:25:51.351Z,10.68
2023-02-23T15:27:56.024Z,10.78
2023-02-23T15:29:58.927Z,10.72
2023-02-23T15:32:16.191Z,10.75
2023-02-23T15:34:21.011Z,10.73
2023-02-23T15:36:29.167Z,10.67
2023-02-23T15:38:43.558Z,10.74
2023-02-23T15:40:47.929Z,10.76
2023-02-23T15:42:54.180Z,10.78
2023-02-23T15:45:00.387Z,10.77
2023-02-23T15:47:05.866Z,10.77
2023-02-23T15:49:12.802Z,10.73
2023-02-23T15:51:23.796Z,10.80
2023-02-23T15:53:30.789Z,10.80
2023-02-23T15:55:35.924Z,10.77
2023-02-23T15:57:47.148Z,10.73
2023-02-23T15:59:54.609Z,10.76
2023-02-23T16:02:00.356Z,10.80
2023-02-23T16:04:07.202Z,10.79
2023-02-23T16:06:23.135Z,10.77
2023-02-23T16:08:27.223Z,10.81
2023-02-23T16:10:30.731Z,10.80
2023-02-23T16:12:36.029Z,10.81
2023-02-23T16:14:45.141Z,10.70
2023-02-23T16:17:01.418Z,10.69
2023-02-23T16:19:13.440Z,10.66
2023-02-23T16:21:19.062Z,10.66
2023-02-23T16:23:33.212Z,10.69
2023-02-23T16:25:36.989Z,10.68
2023-02-23T16:27:40.124Z,10.67
2023-02-23T16:29:43.457Z,10.63
2023-02-23T16:31:49.471Z,10.64
2023-02-23T16:33:56.979Z,10.58
2023-02-23T16:36:19.142Z,10.64
2023-02-23T16:38:25.846Z,10.65
2023-02-23T16:40:29.196Z,10.63
2023-02-23T16:42:34.259Z,10.66
2023-02-23T16:44:43.278Z,10.66
2023-02-23T16:47:01.515Z,10.67
2023-02-23T16:49:10.123Z,10.67
2023-02-23T16:51:16.159Z,10.69
2023-02-23T16:53:19.298Z,10.68
2023-02-23T16:55:26.427Z,10.69
2023-02-23T16:57:31.737Z,10.68
2023-02-23T16:59:35.147Z,10.66
2023-02-23T17:01:38.149Z,10.68
2023-02-23T17:06:08.322Z,10.43
2023-02-23T17:08:11.318Z,10.55
2023-02-23T17:10:24.980Z,10.50
2023-02-23T17:12:28.174Z,10.54
2023-02-23T17:14:32.547Z,10.54
2023-02-23T17:16:35.734Z,10.57
2023-02-23T17:18:42.905Z,10.46
2023-02-23T17:20:48.177Z,10.51
2023-02-23T17:22:51.358Z,10.55
2023-02-23T17:24:54.418Z,10.57
2023-02-23T17:26:57.352Z,10.54
2023-02-23T17:29:00.418Z,10.55
2023-02-23T17:31:04.208Z,10.57
2023-02-23T17:33:08.082Z,10.60
2023-02-23T17:35:11.562Z,10.57
2023-02-23T17:37:15.958Z,10.51
2023-02-23T17:39:19.214Z,10.51
2023-02-23T17:41:22.686Z,10.40
2023-02-23T17:43:26.064Z,10.33
2023-02-23T17:45:29.556Z,10.36
2023-02-23T17:47:33.886Z,10.37
2023-02-23T17:49:37.052Z,10.31
2023-02-23T17:51:40.260Z,10.31
2023-02-23T17:53:44.683Z,10.35
2023-02-23T17:55:48.478Z,10.22
2023-02-23T17:57:51.699Z,10.31
2023-02-23T17:59:54.706Z,10.30
2023-02-23T18:01:59.497Z,10.29
2023-02-23T18:04:02.827Z,10.27
2023-02-23T18:06:07.405Z,10.19
2023-02-23T18:08:10.481Z,10.22
2023-02-23T18:10:17.229Z,10.17
2023-02-23T18:12:20.969Z,10.20
2023-02-23T18:14:23.849Z,10.27
2023-02-23T18:16:27.319Z,10.23
2023-02-23T18:18:30.512Z,10.20
2023-02-23T18:20:33.721Z,10.20
2023-02-23T18:22:37.053Z,10.18
2023-02-23T18:24:41.475Z,10.22
2023-02-23T18:26:47.636Z,10.20
2023-02-23T18:28:51.392Z,10.22
2023-02-23T18:30:54.506Z,10.13
2023-02-23T18:33:04.217Z,10.12
2023-02-23T18:35:08.297Z,10.15
2023-02-23T18:37:11.355Z,10.18
2023-02-23T18:39:14.704Z,10.18
2023-02-23T18:41:18.336Z,10.09
2023-02-23T18:43:22.759Z,10.13
2023-02-23T18:45:25.761Z,10.00
2023-02-23T18:47:29.920Z,10.07
2023-02-23T18:49:33.076Z,10.10
2023-02-23T18:51:36.218Z,10.13
2023-02-23T18:53:39.709Z,10.11
2023-02-23T18:55:44.791Z,10.13
2023-02-23T18:57:48.002Z,10.14
2023-02-23T18:59:52.686Z,10.15
2023-02-23T19:01:55.755Z,10.18
2023-02-23T19:04:01.599Z,10.04
2023-02-23T19:06:09.024Z,10.13
2023-02-23T19:08:15.981Z,10.06
2023-02-23T19:10:19.486Z,10.12
2023-02-23T19:12:22.472Z,10.02
2023-02-23T19:14:46.324Z,10.06
2023-02-23T19:16:50.736Z,10.14
2023-02-23T19:18:53.762Z,10.15
2023-02-23T19:20:56.964Z,10.10
2023-02-23T19:23:00.084Z,10.15
2023-02-23T19:25:03.624Z,10.14
2023-02-23T19:27:09.997Z,10.13
2023-02-23T19:29:13.346Z,9.94
2023-02-23T19:31:20.749Z,10.08
2023-02-23T19:33:28.008Z,10.14
2023-02-23T19:35:33.306Z,10.15
2023-02-23T19:37:36.358Z,10.12
2023-02-23T19:39:39.640Z,10.09
2023-02-23T19:41:44.644Z,9.78
2023-02-23T19:43:49.461Z,10.02
2023-02-23T19:45:52.926Z,9.87
2023-02-23T19:47:56.664Z,9.94
2023-02-23T19:50:01.216Z,9.66
2023-02-23T19:52:04.879Z,9.90
2023-02-23T19:54:07.982Z,9.96
2023-02-23T19:56:13.704Z,9.96
2023-02-23T19:58:17.888Z,10.00
2023-02-23T20:00:21.281Z,9.97
2023-02-23T20:02:24.710Z,9.76
2023-02-23T20:04:28.538Z,9.84
2023-02-23T20:06:36.265Z,9.96
2023-02-23T20:08:39.185Z,10.02
2023-02-23T20:10:42.825Z,10.05
2023-02-23T20:12:46.378Z,10.10
2023-02-23T20:14:49.805Z,9.97
2023-02-23T20:16:54.225Z,9.90
2023-02-23T20:18:57.700Z,9.78
2023-02-23T20:21:01.196Z,9.81
2023-02-23T20:23:07.779Z,9.86
2023-02-23T20:25:16.062Z,9.93
2023-02-23T20:27:23.255Z,9.94
2023-02-23T20:29:28.118Z,9.94
2023-02-23T20:31:37.202Z,9.99
2023-02-23T20:33:40.380Z,9.95
2023-02-23T20:35:46.418Z,10.02
2023-02-23T20:37:49.917Z,10.03
2023-02-23T20:39:54.311Z,10.03
2023-02-23T20:41:57.343Z,9.97
2023-02-23T20:44:01.169Z,10.03
2023-02-23T20:46:04.854Z,9.99
2023-02-23T20:48:09.586Z,10.05
2023-02-23T20:50:16.098Z,9.83
2023-02-23T20:52:19.184Z,9.90
2023-02-23T20:54:22.682Z,9.96
2023-02-23T20:56:32.932Z,9.99
2023-02-23T20:58:36.082Z,10.05
2023-02-23T21:00:40.106Z,10.07
2023-02-23T21:02:43.144Z,10.07
2023-02-23T21:04:46.377Z,10.06
2023-02-23T21:06:49.369Z,10.03
2023-02-23T21:08:56.028Z,10.03
2023-02-23T21:10:59.272Z,10.04
2023-02-23T21:13:04.124Z,10.04
2023-02-23T21:15:09.324Z,10.04
2023-02-23T21:17:12.384Z,10.05
2023-02-23T21:19:17.110Z,10.05
2023-02-23T21:21:20.299Z,10.01
2023-02-23T21:23:23.751Z,9.94
2023-02-23T21:25:28.245Z,9.96
2023-02-23T21:27:32.309Z,10.03
2023-02-23T21:29:44.815Z,10.01
2023-02-23T21:31:48.422Z,10.05
2023-02-23T21:33:51.468Z,9.98
2023-02-23T21:35:59.118Z,9.86
2023-02-23T21:38:02.283Z,9.76
2023-02-23T21:40:09.354Z,9.71
2023-02-23T21:42:12.359Z,9.44
2023-02-23T21:44:15.234Z,9.51
2023-02-23T21:46:21.571Z,9.46
2023-02-23T21:48:33.399Z,9.34
2023-02-23T21:50:36.392Z,9.35
2023-02-23T21:52:39.388Z,9.25
2023-02-23T21:54:46.659Z,9.23
2023-02-23T21:56:50.112Z,9.21
2023-02-23T21:58:54.871Z,9.03
2023-02-23T22:00:58.350Z,9.07
2023-02-23T22:03:03.482Z,9.08
2023-02-23T22:05:07.625Z,9.02
2023-02-23T22:07:10.717Z,9.05
2023-02-23T22:09:15.460Z,9.10
2023-02-23T22:11:20.486Z,9.16
2023-02-23T22:13:23.665Z,9.14
2023-02-23T22:15:28.292Z,9.09
2023-02-23T22:17:32.831Z,9.02
2023-02-23T22:19:37.447Z,9.01
2023-02-23T22:21:42.127Z,8.82
2023-02-23T22:23:47.945Z,8.98
2023-02-23T22:25:51.248Z,8.99
2023-02-23T22:27:54.129Z,8.85
2023-02-23T22:29:59.909Z,8.93
2023-02-23T22:32:02.975Z,8.92
2023-02-23T22:34:07.303Z,8.96
2023-02-23T22:36:14.930Z,8.95
2023-02-23T22:38:19.751Z,8.92
2023-02-23T22:40:23.138Z,8.83
2023-02-23T22:42:29.542Z,8.74
2023-02-23T22:44:32.482Z,8.65
2023-02-23T22:46:38.886Z,8.74
2023-02-23T22:48:44.925Z,8.63
2023-02-23T22:50:48.157Z,8.67
2023-02-23T22:52:53.536Z,8.70
2023-02-23T22:54:57.696Z,8.69
2023-02-23T22:57:00.836Z,8.61
2023-02-23T22:59:10.821Z,8.61
2023-02-23T23:01:14.759Z,8.57
2023-02-23T23:03:18.921Z,8.59
2023-02-23T23:05:22.917Z,8.52
2023-02-23T23:07:26.472Z,8.38
2023-02-23T23:09:33.299Z,8.39
2023-02-23T23:11:37.341Z,8.32
2023-02-23T23:13:44.717Z,8.34
2023-02-23T23:15:49.347Z,8.36
2023-02-23T23:17:53.849Z,8.23
2023-02-23T23:19:56.789Z,8.15
2023-02-23T23:22:00.581Z,8.24
2023-02-23T23:24:06.223Z,8.28
2023-02-23T23:26:14.719Z,8.29
2023-02-23T23:28:19.073Z,8.23
2023-02-23T23:30:25.956Z,8.21
2023-02-23T23:32:30.334Z,8.22
2023-02-23T23:34:33.712Z,8.30
2023-02-23T23:36:43.018Z,8.33
2023-02-23T23:38:46.085Z,8.34
2023-02-23T23:40:49.427Z,8.31
2023-02-23T23:42:55.818Z,8.33
2023-02-23T23:44:58.890Z,8.34
2023-02-23T23:47:05.329Z,8.33
2023-02-23T23:49:11.291Z,8.20
2023-02-23T23:51:15.173Z,8.29
2023-02-23T23:53:19.808Z,8.19
2023-02-23T23:55:22.832Z,8.19
2023-02-23T23:57:26.083Z,8.11
2023-02-23T23:59:31.903Z,8.08
